Chicago, Illinois
Current Conditions -  °F | °C
As of 7:53 PM on Saturday 22 Nov 2014 (Local Time) from KMDW Reporting Station
Broken Clouds Broken Clouds  
Wind Chill: 12°   Ceiling: 5500
Heat Index: 12°   Visibility: 10mi
Dew Point:   Wind: 13mph
Humidity: 77%   Direction: 200°SSW
Pressure: 29.87"   Gusts: 22mph
Location:  41.88°N, 87.63°W
Report Text: KMDW 230153Z 20011G19KT 10SM SCT025 BKN055 12/08 A2987 RMK AO2 SLP119 T01170078
Loading
Personal Weather Stations






























Interactive Weather Map New forecast layout! Learn more

10-Day Weather Forecast

Advertisements
Track Severe Weather on mobile